Terminal Aerodrome Forecast
Issued by NWS

Home | Current Version | Previous Version | Text Only | Print | Product List | Glossary On
Versions: 1 2 3 4 5 6 7 8 9 10 11 12 13 14
119
FTUS45 KRIW 221720
TAFRKS
TAF
KRKS 221720Z 2218/2318 VRB05KT P6SM BKN070
     FM222200 14006KT P6SM SCT050 BKN080
     FM230300 11006KT P6SM VCSH BKN035
     FM231000 10006KT 4SM -SN OVC022=

USA.gov is the U.S. government's official web portal to all federal, state and local government web resources and services.